Time;durP1;ratioP1;P1;durP2;ratioP2;P2;SDS_P1;SDS_P2;PMS_P1;PMS_P2;Temp;Humidity;BMP_temperature;BMP_pressure;BME280_temperature;BME280_humidity;BME280_pressure;Samples;Min_cycle;Max_cycle;Signal;HPM_P1;HPM_P2
2023/03/08 00:01:30;;;;;;;51.10;20.02;;;;;;;4.58;65.78;96690.44;5095455;28;20023;-82
2023/03/08 00:03:57;;;;;;;44.33;18.00;;;;;;;4.59;65.36;96704.84;5069397;28;20044;-80
2023/03/08 00:06:25;;;;;;;44.05;17.38;;;;;;;4.60;65.85;96698.28;5087428;28;20015;-82
2023/03/08 00:08:54;;;;;;;42.08;17.42;;;;;;;4.61;65.66;96708.06;5087236;28;20036;-82
2023/03/08 00:11:19;;;;;;;36.83;16.05;;;;;;;4.60;65.34;96699.09;5087211;28;20024;-83
2023/03/08 00:13:45;;;;;;;29.92;14.43;;;;;;;4.60;65.17;96704.53;5089831;28;20020;-81
2023/03/08 00:16:12;;;;;;;29.30;14.75;;;;;;;4.58;65.37;96714.88;5089076;28;20028;-82
2023/03/08 00:18:38;;;;;;;27.55;14.05;;;;;;;4.57;65.74;96726.84;5093516;28;20063;-83
2023/03/08 00:21:10;;;;;;;33.70;14.75;;;;;;;4.55;65.27;96712.75;5092124;28;20107;-83
2023/03/08 00:23:35;;;;;;;38.63;16.75;;;;;;;4.54;65.15;96707.63;5075991;28;20020;-84
2023/03/08 00:26:01;;;;;;;38.75;17.35;;;;;;;4.54;65.35;96713.06;5075456;28;20016;-85
2023/03/08 00:28:26;;;;;;;50.40;18.15;;;;;;;4.54;65.29;96710.34;5091415;28;20032;-84
2023/03/08 00:31:06;;;;;;;52.38;19.52;;;;;;;4.53;65.23;96723.09;5090664;28;20031;-83
2023/03/08 00:33:32;;;;;;;34.33;16.35;;;;;;;4.50;65.31;96722.91;5088901;28;20638;-83
2023/03/08 00:36:02;;;;;;;30.95;14.68;;;;;;;4.48;65.27;96720.50;5093193;28;20106;-84
2023/03/08 00:38:30;;;;;;;35.17;15.25;;;;;;;4.45;65.08;96716.47;5088285;28;20141;-84
2023/03/08 00:40:57;;;;;;;24.02;13.15;;;;;;;4.47;65.18;96727.03;5091912;28;20077;-84
2023/03/08 00:43:22;;;;;;;24.77;12.90;;;;;;;4.49;65.83;96724.03;5091439;28;20031;-83
2023/03/08 00:45:48;;;;;;;29.52;13.98;;;;;;;4.48;65.49;96717.78;5091571;28;20035;-84
2023/03/08 00:48:13;;;;;;;28.02;13.88;;;;;;;4.47;65.24;96716.19;5091828;28;20024;-85
2023/03/08 00:50:39;;;;;;;31.77;14.18;;;;;;;4.46;65.09;96726.22;5098111;28;20016;-84
2023/03/08 00:53:04;;;;;;;29.35;13.70;;;;;;;4.44;65.70;96731.16;5094845;28;20473;-84
2023/03/08 00:55:30;;;;;;;23.75;12.15;;;;;;;4.42;65.48;96730.63;5096510;28;20645;-82
2023/03/08 00:57:55;;;;;;;24.23;12.60;;;;;;;4.41;65.33;96731.75;5095994;28;20023;-83
2023/03/08 01:00:21;;;;;;;25.23;13.10;;;;;;;4.40;65.05;96742.91;5094925;28;20376;-83
2023/03/08 01:02:46;;;;;;;26.15;13.63;;;;;;;4.39;65.54;96733.16;5095577;28;20095;-84
2023/03/08 01:05:12;;;;;;;24.88;13.52;;;;;;;4.38;65.50;96723.41;5092768;28;20089;-84
2023/03/08 01:07:38;;;;;;;21.45;12.05;;;;;;;4.36;65.23;96734.53;5090871;28;20484;-83
2023/03/08 01:10:04;;;;;;;24.55;12.98;;;;;;;4.34;64.71;96725.09;5091165;28;20044;-83
2023/03/08 01:12:33;;;;;;;26.50;14.77;;;;;;;4.31;65.43;96727.31;5093497;28;20077;-86
2023/03/08 01:14:59;;;;;;;23.15;12.50;;;;;;;4.30;65.49;96727.59;5090602;28;20106;-83
2023/03/08 01:17:24;;;;;;;29.70;14.35;;;;;;;4.27;65.57;96729.00;5091718;28;20149;-84
2023/03/08 01:19:50;;;;;;;27.70;14.38;;;;;;;4.26;64.80;96721.97;5094304;28;20045;-83
2023/03/08 01:22:15;;;;;;;23.83;12.65;;;;;;;4.27;65.51;96733.63;5091924;28;20095;-84
2023/03/08 01:24:45;;;;;;;24.23;12.88;;;;;;;4.24;64.97;96726.09;5094106;28;20064;-83
2023/03/08 01:27:10;;;;;;;25.55;15.15;;;;;;;4.24;64.79;96723.38;5090750;28;20395;-83
2023/03/08 01:29:35;;;;;;;25.15;13.70;;;;;;;4.23;65.58;96721.75;5075944;28;20119;-83
2023/03/08 01:32:01;;;;;;;24.65;13.27;;;;;;;4.21;64.88;96722.03;5097247;28;20108;-82
2023/03/08 01:34:26;;;;;;;22.35;12.32;;;;;;;4.22;65.09;96720.16;5094546;28;20023;-84
2023/03/08 01:36:52;;;;;;;24.75;12.75;;;;;;;4.20;65.26;96714.22;5094534;28;20802;-84
2023/03/08 01:39:17;;;;;;;21.85;12.85;;;;;;;4.22;65.07;96715.50;5096873;28;20479;-83
2023/03/08 01:41:42;;;;;;;25.42;13.30;;;;;;;4.23;64.84;96716.34;5075631;28;20059;-83
2023/03/08 01:44:15;;;;;;;21.48;12.32;;;;;;;4.23;64.91;96700.06;5095363;28;20032;-84
2023/03/08 01:46:40;;;;;;;20.25;12.38;;;;;;;4.23;65.12;96700.84;5075149;28;20035;-84
2023/03/08 01:49:32;;;;;;;29.75;14.30;;;;;;;4.23;64.58;96702.78;5091099;28;20428;-83
2023/03/08 01:52:05;;;;;;;27.33;14.05;;;;;;;4.23;64.51;96706.28;5090725;28;20032;-82
2023/03/08 01:54:35;;;;;;;23.20;13.18;;;;;;;4.24;64.97;96710.59;5091747;28;20022;-84
2023/03/08 01:57:03;;;;;;;;;;;;;;;4.24;64.78;96702.47;5088746;28;20024;-83
2023/03/08 01:59:32;;;;;;;26.35;13.73;;;;;;;4.24;64.27;96712.53;5093785;28;19982;-83
2023/03/08 02:01:58;;;;;;;29.30;15.57;;;;;;;4.21;64.39;96713.91;5087881;28;20099;-83
2023/03/08 02:04:24;;;;;;;27.10;14.02;;;;;;;4.20;64.14;96706.06;5086323;28;20139;-83
2023/03/08 02:06:50;;;;;;;25.08;13.07;;;;;;;4.20;64.59;96706.88;5088203;28;20043;-83
2023/03/08 02:09:15;;;;;;;27.30;13.75;;;;;;;4.23;64.81;96708.19;5071753;28;20024;-83
2023/03/08 02:11:41;;;;;;;21.85;12.00;;;;;;;4.22;64.43;96712.00;5087490;28;20097;-83
2023/03/08 02:14:07;;;;;;;22.20;11.88;;;;;;;4.21;64.11;96708.47;5089884;28;20024;-84
2023/03/08 02:16:32;;;;;;;22.27;11.98;;;;;;;4.22;64.02;96709.28;5088034;28;20205;-83
2023/03/08 02:19:01;;;;;;;24.15;12.85;;;;;;;4.22;64.50;96720.94;5086214;28;20040;-83
2023/03/08 02:21:29;;;;;;;23.85;12.57;;;;;;;4.22;64.78;96715.50;5087874;28;20429;-83
2023/03/08 02:23:55;;;;;;;26.20;14.20;;;;;;;4.18;63.97;96725.34;5085658;28;20428;-83
2023/03/08 02:26:21;;;;;;;38.95;17.95;;;;;;;4.18;64.55;96728.06;5085681;28;20530;-83
2023/03/08 02:28:47;;;;;;;24.48;12.77;;;;;;;4.17;64.14;96730.00;5091347;28;20059;-83
2023/03/08 02:31:13;;;;;;;31.08;14.70;;;;;;;4.15;64.01;96726.75;5082574;28;20055;-83
2023/03/08 02:33:39;;;;;;;25.00;13.15;;;;;;;4.14;64.43;96736.00;5087995;28;20027;-83
2023/03/08 02:36:07;;;;;;;27.58;13.43;;;;;;;4.12;63.95;96740.91;5099555;28;20553;-83
2023/03/08 02:38:33;;;;;;;23.42;12.68;;;;;;;4.11;64.12;96736.59;5093465;28;20038;-82
2023/03/08 02:40:58;;;;;;;26.85;13.10;;;;;;;4.08;64.28;96739.91;5088854;28;20056;-82
2023/03/08 02:43:24;;;;;;;26.23;12.43;;;;;;;4.04;64.07;96746.22;5089922;28;20028;-83
2023/03/08 02:45:49;;;;;;;17.92;10.63;;;;;;;4.03;64.56;96756.25;5111343;28;20028;-83
2023/03/08 02:48:14;;;;;;;21.55;12.40;;;;;;;3.99;63.82;96753.34;5087306;28;20036;-83
2023/03/08 02:50:40;;;;;;;23.27;11.38;;;;;;;3.97;64.46;96755.53;5100813;28;20469;-82
2023/03/08 02:53:06;;;;;;;20.13;10.82;;;;;;;3.96;64.32;96758.53;5090726;28;20032;-83
2023/03/08 02:55:34;;;;;;;20.13;11.23;;;;;;;3.97;63.94;96754.72;5090822;28;20468;-83
2023/03/08 02:58:00;;;;;;;21.33;11.38;;;;;;;3.96;64.38;96762.06;5090456;28;20024;-83
2023/03/08 03:00:25;;;;;;;17.80;9.50;;;;;;;3.98;64.44;96759.03;5091025;28;20069;-82
2023/03/08 03:02:51;;;;;;;21.98;12.25;;;;;;;3.97;64.31;96768.28;5090884;28;20017;-82
2023/03/08 03:05:16;;;;;;;21.35;11.50;;;;;;;3.96;64.07;96770.19;5090705;28;20411;-82
2023/03/08 03:07:42;;;;;;;19.17;10.23;;;;;;;3.97;63.73;96771.00;5090441;28;20028;-82
2023/03/08 03:10:09;;;;;;;18.77;10.95;;;;;;;3.96;64.56;96780.22;5090536;28;20031;-82
2023/03/08 03:12:35;;;;;;;22.40;12.30;;;;;;;3.96;63.81;96782.94;5090290;28;20023;-83
2023/03/08 03:15:01;;;;;;;17.85;10.25;;;;;;;3.97;64.30;96784.56;5090122;28;20020;-83
2023/03/08 03:17:27;;;;;;;18.73;10.32;;;;;;;3.95;64.10;96792.19;5090214;28;20028;-82
2023/03/08 03:19:52;;;;;;;18.42;9.57;;;;;;;3.92;63.49;96796.31;5090043;28;20518;-83
2023/03/08 03:22:18;;;;;;;18.20;10.05;;;;;;;3.91;63.78;96794.69;5090613;28;20529;-82
2023/03/08 03:24:43;;;;;;;17.45;9.45;;;;;;;3.92;64.35;96800.91;5090203;28;20394;-82
2023/03/08 03:27:08;;;;;;;18.27;9.93;;;;;;;3.91;64.24;96804.72;5090027;28;20028;-82
2023/03/08 03:29:36;;;;;;;17.52;10.10;;;;;;;3.90;64.04;96803.91;5089803;28;20020;-82
2023/03/08 03:32:01;;;;;;;16.98;9.85;;;;;;;3.88;63.97;96806.91;5096894;28;20159;-82
2023/03/08 03:34:27;;;;;;;19.90;9.80;;;;;;;3.87;63.43;96805.28;5110321;28;20019;-82
2023/03/08 03:36:52;;;;;;;15.82;9.35;;;;;;;3.82;63.93;96808.09;5110134;28;20023;-82
2023/03/08 03:39:17;;;;;;;17.98;9.68;;;;;;;3.82;63.21;96810.00;5107981;28;20058;-83
2023/03/08 03:41:43;;;;;;;16.00;8.55;;;;;;;3.83;63.78;96806.19;5110042;28;20399;-82
2023/03/08 03:44:08;;;;;;;16.25;8.93;;;;;;;3.80;63.43;96813.00;5110199;28;20073;-82
2023/03/08 03:46:34;;;;;;;14.65;8.57;;;;;;;3.80;63.45;96815.72;5091806;28;20655;-82
2023/03/08 03:48:59;;;;;;;15.45;9.25;;;;;;;3.81;63.88;96811.91;5110192;28;20046;-82
2023/03/08 03:51:24;;;;;;;17.08;9.23;;;;;;;3.82;62.82;96815.41;5074255;28;20024;-82
2023/03/08 03:53:50;;;;;;;14.50;8.52;;;;;;;3.80;62.77;96817.63;5089626;28;20388;-83
2023/03/08 03:56:16;;;;;;;15.63;8.43;;;;;;;3.76;63.05;96820.13;5089404;28;20024;-82
2023/03/08 03:58:42;;;;;;;14.30;8.20;;;;;;;3.75;63.15;96821.22;5102490;28;20028;-82
2023/03/08 04:01:28;;;;;;;13.50;7.85;;;;;;;3.72;63.48;96829.94;5109533;28;20030;-83
2023/03/08 04:03:54;;;;;;;14.52;8.45;;;;;;;3.72;62.47;96821.81;5106794;28;20042;-82
2023/03/08 04:06:25;;;;;;;16.88;8.13;;;;;;;3.69;62.83;96830.50;5109968;28;20020;-82
2023/03/08 04:08:53;;;;;;;14.70;8.45;;;;;;;3.67;62.85;96825.38;5109853;28;20543;-83
2023/03/08 04:11:22;;;;;;;15.15;8.70;;;;;;;3.67;62.53;96816.44;5109750;28;20051;-83
2023/03/08 04:13:47;;;;;;;14.20;7.85;;;;;;;3.67;63.13;96827.28;5109401;28;20023;-82
2023/03/08 04:16:24;;;;;;;14.15;7.70;;;;;;;3.68;62.45;96823.47;5091619;28;20023;-82
2023/03/08 04:18:54;;;;;;;14.80;8.05;;;;;;;3.70;62.81;96851.91;5110647;28;20054;-82
2023/03/08 04:21:21;;;;;;;12.38;7.70;;;;;;;3.70;62.43;96842.97;5096985;28;20118;-82
2023/03/08 04:23:46;;;;;;;14.90;8.48;;;;;;;3.68;62.29;96837.81;5090569;28;20063;-83
2023/03/08 04:26:12;;;;;;;13.57;7.68;;;;;;;3.68;61.90;96834.31;5090058;28;20473;-81
2023/03/08 04:28:38;;;;;;;14.85;7.53;;;;;;;3.68;62.13;96842.47;5090356;28;20032;-82
2023/03/08 04:31:30;;;;;;;14.27;7.35;;;;;;;3.68;61.95;96842.47;5072171;28;20028;-82
2023/03/08 04:33:57;;;;;;;13.75;7.85;;;;;;;3.69;61.40;96842.16;5085470;28;20048;-82
2023/03/08 04:36:23;;;;;;;14.45;8.10;;;;;;;3.68;61.38;96837.81;5090362;28;20020;-82
2023/03/08 04:38:49;;;;;;;14.00;8.25;;;;;;;3.67;61.61;96840.84;5090193;28;20035;-82
2023/03/08 04:41:15;;;;;;;13.30;8.02;;;;;;;3.66;62.01;96840.06;5110120;28;20515;-82
2023/03/08 04:43:52;;;;;;;15.52;7.50;;;;;;;3.65;62.00;96853.88;5110371;28;20039;-82
2023/03/08 04:46:19;;;;;;;15.23;8.40;;;;;;;3.66;61.07;96861.75;5105854;28;20030;-82
2023/03/08 04:48:45;;;;;;;13.52;8.18;;;;;;;3.65;61.12;96859.31;5110528;28;20094;-82
2023/03/08 04:51:13;;;;;;;15.57;8.88;;;;;;;3.66;61.84;96867.16;5095420;28;20024;-82
2023/03/08 04:53:40;;;;;;;17.77;8.95;;;;;;;3.68;62.00;96854.09;5089900;28;20028;-82
2023/03/08 04:56:07;;;;;;;17.13;8.38;;;;;;;3.70;61.62;96840.25;5089814;28;20392;-81
2023/03/08 04:58:34;;;;;;;15.15;7.95;;;;;;;3.74;61.50;96833.16;5108818;28;20054;-82
2023/03/08 05:01:11;;;;;;;18.92;8.63;;;;;;;3.72;61.88;96844.28;5090400;28;20111;-82
2023/03/08 05:03:37;;;;;;;15.23;8.90;;;;;;;3.76;61.47;96849.94;5091641;28;20059;-82
2023/03/08 05:06:04;;;;;;;15.95;9.05;;;;;;;3.72;61.57;96849.72;5093326;28;20044;-81
2023/03/08 05:08:29;;;;;;;17.52;9.82;;;;;;;3.71;60.85;96852.72;5093533;28;20027;-81
2023/03/08 05:10:57;;;;;;;16.77;9.65;;;;;;;3.67;61.70;96844.34;5093087;28;20036;-82
2023/03/08 05:13:23;;;;;;;20.52;9.43;;;;;;;3.66;61.23;96852.78;5093508;28;20063;-81
2023/03/08 05:15:49;;;;;;;20.70;10.57;;;;;;;3.62;61.70;96855.28;5093332;28;20034;-82
2023/03/08 05:18:14;;;;;;;18.38;10.25;;;;;;;3.60;61.35;96848.53;5109801;28;20031;-82
2023/03/08 05:20:40;;;;;;;17.67;9.20;;;;;;;3.57;60.97;96850.72;5113410;28;20060;-81
2023/03/08 05:23:05;;;;;;;16.00;8.80;;;;;;;3.54;61.68;96853.22;5088858;28;20035;-82
2023/03/08 05:25:32;;;;;;;17.55;9.23;;;;;;;3.51;60.76;96860.00;5074660;28;20111;-82
2023/03/08 05:27:58;;;;;;;21.70;10.73;;;;;;;3.48;61.28;96876.84;5101905;28;20134;-82
2023/03/08 05:30:23;;;;;;;19.52;10.00;;;;;;;3.45;61.79;96873.91;5113225;28;20051;-82
2023/03/08 05:32:49;;;;;;;19.00;9.95;;;;;;;3.42;61.44;96873.38;5093209;28;20055;-81
2023/03/08 05:35:14;;;;;;;17.73;9.00;;;;;;;3.42;61.85;96872.59;5092704;28;20031;-82
2023/03/08 05:37:40;;;;;;;16.90;9.02;;;;;;;3.39;61.51;96873.97;5092590;28;20043;-82
2023/03/08 05:40:05;;;;;;;19.33;10.88;;;;;;;3.36;61.79;96871.84;5092613;28;20123;-82
2023/03/08 05:42:32;;;;;;;16.95;9.20;;;;;;;3.34;61.48;96882.16;5092896;28;20024;-81
2023/03/08 05:44:58;;;;;;;18.52;9.27;;;;;;;3.31;61.19;96868.38;5092344;28;20031;-81
2023/03/08 05:47:24;;;;;;;16.88;9.40;;;;;;;3.27;60.82;96870.84;5093016;28;20376;-81
2023/03/08 05:49:50;;;;;;;18.17;10.57;;;;;;;3.25;61.47;96873.84;5095616;28;20422;-80
2023/03/08 05:52:15;;;;;;;21.17;12.10;;;;;;;3.22;61.42;96871.72;5094680;28;20122;-81
2023/03/08 05:54:40;;;;;;;20.60;10.80;;;;;;;3.19;61.83;96872.28;5113135;28;20375;-80
2023/03/08 05:57:06;;;;;;;19.60;9.13;;;;;;;3.16;61.72;96897.25;5105780;28;20462;-77
2023/03/08 05:59:31;;;;;;;18.98;9.57;;;;;;;3.18;61.20;96908.59;5112941;28;20038;-78
2023/03/08 06:01:57;;;;;;;20.67;10.23;;;;;;;3.23;61.86;96916.69;5112548;28;20115;-78
2023/03/08 06:04:22;;;;;;;18.63;9.35;;;;;;;3.27;61.18;96925.84;5112400;28;20035;-78
2023/03/08 06:06:47;;;;;;;23.30;10.68;;;;;;;3.32;61.06;96930.41;5093897;28;20384;-78
2023/03/08 06:09:13;;;;;;;21.40;9.73;;;;;;;3.35;61.00;96934.47;5112202;28;20067;-78
2023/03/08 06:11:38;;;;;;;23.17;10.48;;;;;;;3.41;61.40;96944.94;5110160;28;20040;-78
2023/03/08 06:14:03;;;;;;;22.27;10.27;;;;;;;3.42;61.60;96953.91;5111438;28;20034;-78
2023/03/08 06:16:29;;;;;;;20.88;9.48;;;;;;;3.45;61.63;96953.34;5091377;28;20024;-78
2023/03/08 06:18:54;;;;;;;18.27;9.90;;;;;;;3.47;60.83;96942.97;5092233;28;20059;-78
2023/03/08 06:21:21;;;;;;;19.15;8.77;;;;;;;3.47;60.63;96945.69;5092084;28;20031;-75
2023/03/08 06:23:46;;;;;;;19.55;10.13;;;;;;;3.48;61.03;96947.31;5092056;28;20024;-76
2023/03/08 06:26:13;;;;;;;19.60;9.95;;;;;;;3.47;61.56;96934.06;5073455;28;20040;-75
2023/03/08 06:28:41;;;;;;;20.60;9.75;;;;;;;3.46;61.36;96938.69;5091967;28;20047;-76
2023/03/08 06:31:10;;;;;;;18.20;9.48;;;;;;;3.47;61.28;96942.19;5091406;28;20408;-77
2023/03/08 06:33:36;;;;;;;19.63;9.15;;;;;;;3.48;61.01;96946.53;5092023;28;20143;-77
2023/03/08 06:36:07;;;;;;;19.30;10.48;;;;;;;3.50;60.94;96949.75;5073187;28;20028;-77
2023/03/08 06:38:35;;;;;;;19.13;9.50;;;;;;;3.51;60.40;96949.44;5091583;28;20492;-76
2023/03/08 06:41:01;;;;;;;21.67;10.23;;;;;;;3.53;61.18;96955.41;5081941;28;20445;-77
2023/03/08 06:43:27;;;;;;;30.90;12.05;;;;;;;3.61;61.61;96964.00;5112067;28;20032;-76
2023/03/08 06:45:53;;;;;;;51.47;16.02;;;;;;;3.68;61.22;96956.34;5104670;28;20070;-77
2023/03/08 06:48:19;;;;;;;29.77;12.05;;;;;;;3.73;61.21;96975.25;5091804;28;20430;-76
2023/03/08 06:50:44;;;;;;;20.02;10.40;;;;;;;3.79;61.12;96974.13;5101074;28;20023;-76
2023/03/08 06:53:10;;;;;;;18.33;10.43;;;;;;;3.84;60.26;96968.63;5111798;28;20038;-77
2023/03/08 06:55:38;;;;;;;16.08;9.00;;;;;;;3.88;60.54;96969.66;5111776;28;20031;-77
2023/03/08 06:58:04;;;;;;;17.27;8.55;;;;;;;3.94;60.95;96975.00;5111192;28;20032;-77
2023/03/08 07:00:31;;;;;;;16.85;8.82;;;;;;;3.99;60.75;96977.66;5111368;28;20034;-77
2023/03/08 07:02:56;;;;;;;18.73;9.25;;;;;;;4.07;60.22;96979.75;5089345;28;20032;-77
2023/03/08 07:05:22;;;;;;;19.63;9.65;;;;;;;4.12;60.38;96976.97;5091276;28;20066;-77
2023/03/08 07:07:48;;;;;;;19.40;9.10;;;;;;;4.17;59.60;96976.91;5090834;28;20032;-77
2023/03/08 07:10:15;;;;;;;17.90;9.13;;;;;;;4.17;60.84;96982.34;5091098;28;20063;-78
2023/03/08 07:12:42;;;;;;;19.38;9.57;;;;;;;4.23;59.61;96977.66;5073001;28;20016;-77
2023/03/08 07:15:15;;;;;;;25.95;10.70;;;;;;;4.25;59.46;96985.50;5091202;28;20036;-78
2023/03/08 07:17:42;;;;;;;20.60;9.88;;;;;;;4.28;59.26;96993.06;5104950;28;20027;-77
2023/03/08 07:20:12;;;;;;;18.38;9.63;;;;;;;4.32;59.47;96994.06;5111088;28;20376;-77
2023/03/08 07:22:37;;;;;;;;;;;;;;;4.36;59.41;97003.25;5111525;28;20030;-77
2023/03/08 07:25:03;;;;;;;21.42;10.07;;;;;;;4.42;59.97;96996.66;5111228;28;20002;-77
2023/03/08 07:27:28;;;;;;;18.90;9.50;;;;;;;4.52;60.05;97016.63;5110770;28;20053;-77
2023/03/08 07:29:53;;;;;;;15.98;9.55;;;;;;;4.59;59.13;97004.31;5111312;28;20118;-77
2023/03/08 07:32:19;;;;;;;19.00;9.30;;;;;;;4.66;58.88;97009.41;5110946;28;20088;-77
2023/03/08 07:34:44;;;;;;;19.05;9.68;;;;;;;4.66;59.18;97012.09;5111236;28;20077;-77
2023/03/08 07:37:14;;;;;;;16.02;8.40;;;;;;;4.67;59.30;97013.72;5108401;28;20395;-77
2023/03/08 07:39:39;;;;;;;18.88;9.30;;;;;;;4.68;58.58;97017.22;5110713;28;20039;-77
2023/03/08 07:42:05;;;;;;;15.05;8.07;;;;;;;4.69;58.66;97018.84;5110339;28;20220;-77
2023/03/08 07:44:30;;;;;;;14.73;7.75;;;;;;;4.68;59.56;97025.38;5111053;28;20038;-77
2023/03/08 07:46:55;;;;;;;14.50;7.70;;;;;;;4.72;58.63;97021.78;5110456;28;20042;-78
2023/03/08 07:49:21;;;;;;;15.95;8.27;;;;;;;4.76;59.46;97032.88;5092606;28;20085;-77
2023/03/08 07:51:48;;;;;;;14.63;8.32;;;;;;;4.80;59.17;97039.34;5090930;28;20032;-78
2023/03/08 07:54:14;;;;;;;14.80;7.97;;;;;;;4.83;58.69;97040.66;5090712;28;20100;-78
2023/03/08 07:56:39;;;;;;;18.25;8.20;;;;;;;4.85;58.77;97033.84;5107382;28;20106;-78
2023/03/08 07:59:04;;;;;;;15.75;8.10;;;;;;;4.91;59.24;97023.69;5110663;28;20084;-77
2023/03/08 08:01:31;;;;;;;12.88;7.68;;;;;;;4.95;59.28;97023.91;5110887;28;20028;-78
2023/03/08 08:03:58;;;;;;;17.33;9.40;;;;;;;5.02;59.01;97018.91;5111052;28;20047;-77
2023/03/08 08:06:23;;;;;;;14.70;8.55;;;;;;;5.04;59.71;97022.97;5110464;28;20024;-77
2023/03/08 08:08:49;;;;;;;16.60;8.52;;;;;;;5.11;59.47;97025.28;5110212;28;20034;-78
2023/03/08 08:11:18;;;;;;;14.85;8.07;;;;;;;5.19;59.86;97023.81;5106464;28;20059;-77
2023/03/08 08:13:45;;;;;;;13.30;7.72;;;;;;;5.27;59.38;97014.19;5110491;28;20158;-78
2023/03/08 08:16:12;;;;;;;14.65;8.45;;;;;;;5.30;59.04;97011.66;5110495;28;20468;-77
2023/03/08 08:18:37;;;;;;;13.52;7.57;;;;;;;5.35;58.87;97018.91;5110347;28;20039;-78
2023/03/08 08:21:09;;;;;;;16.70;9.25;;;;;;;5.39;58.74;97019.16;5099420;28;20025;-79
2023/03/08 08:23:37;;;;;;;17.15;8.82;;;;;;;5.37;58.66;97008.56;5090292;28;20158;-80
2023/03/08 08:26:06;;;;;;;18.88;9.60;;;;;;;5.34;59.09;97009.97;5089872;28;20035;-80
2023/03/08 08:28:33;;;;;;;19.08;9.93;;;;;;;5.33;58.96;97005.63;5088399;28;20035;-78
2023/03/08 08:31:04;;;;;;;20.17;9.10;;;;;;;5.32;58.53;97017.63;5067928;28;20016;-80
2023/03/08 08:33:31;;;;;;;20.45;9.80;;;;;;;5.31;58.85;97009.75;5071149;28;20047;-78
2023/03/08 08:35:57;;;;;;;17.15;8.90;;;;;;;5.34;58.82;97009.16;5088863;28;20111;-79
2023/03/08 08:38:23;;;;;;;17.75;8.68;;;;;;;5.40;58.19;97009.88;5091448;28;20027;-79
2023/03/08 08:40:49;;;;;;;12.77;7.15;;;;;;;5.48;58.11;97006.50;5093888;28;20606;-79
2023/03/08 08:43:15;;;;;;;16.23;7.53;;;;;;;5.52;58.16;97018.34;5095383;28;20097;-79
2023/03/08 08:45:45;;;;;;;15.60;8.05;;;;;;;5.58;58.32;97013.66;5113730;28;20058;-79
2023/03/08 08:48:11;;;;;;;;;;;;;;;5.65;58.34;97014.06;5114164;28;20479;-79
2023/03/08 08:50:40;;;;;;;17.35;8.75;;;;;;;5.69;57.62;97017.81;5098185;28;19916;-79
2023/03/08 08:53:06;;;;;;;13.95;7.30;;;;;;;5.73;58.12;97026.97;5093036;28;20024;-78
2023/03/08 08:55:32;;;;;;;17.17;7.65;;;;;;;5.79;58.39;97016.81;5093161;28;20056;-81
2023/03/08 08:57:57;;;;;;;13.25;7.55;;;;;;;5.84;57.36;97022.16;5096175;28;20112;-79
2023/03/08 09:00:23;;;;;;;14.55;8.48;;;;;;;5.81;57.84;97007.22;5074524;28;20024;-81
2023/03/08 09:02:48;;;;;;;15.02;7.85;;;;;;;5.87;57.00;96996.25;5076481;28;20032;-81
2023/03/08 09:05:13;;;;;;;14.15;8.07;;;;;;;5.91;57.70;97008.16;5093377;28;20551;-81
2023/03/08 09:07:39;;;;;;;18.35;9.13;;;;;;;5.96;57.81;97003.41;5073995;28;20157;-81
2023/03/08 09:10:05;;;;;;;16.52;8.20;;;;;;;6.02;57.75;97011.50;5092546;28;20058;-80
2023/03/08 09:12:31;;;;;;;14.73;8.65;;;;;;;6.09;57.81;97001.84;5100142;28;20031;-82
2023/03/08 09:14:57;;;;;;;20.33;10.07;;;;;;;6.16;57.17;96998.72;5086359;28;20059;-82
2023/03/08 09:17:22;;;;;;;19.48;8.93;;;;;;;6.17;57.31;96996.78;5100222;28;20380;-80
2023/03/08 09:19:47;;;;;;;22.60;11.13;;;;;;;6.19;57.33;97000.00;5098458;28;20039;-78
2023/03/08 09:22:13;;;;;;;22.60;10.80;;;;;;;6.24;57.26;96997.19;5088501;28;20084;-81
2023/03/08 09:24:38;;;;;;;17.92;8.90;;;;;;;6.30;57.53;96993.25;5094287;28;20024;-81
2023/03/08 09:27:05;;;;;;;15.27;8.07;;;;;;;6.37;57.60;96995.56;5089719;28;20496;-83
2023/03/08 09:29:31;;;;;;;14.57;8.75;;;;;;;6.47;57.02;96989.09;5090367;28;20044;-79
2023/03/08 09:31:57;;;;;;;13.23;7.80;;;;;;;6.54;56.88;96989.47;5093938;28;20381;-85
2023/03/08 09:34:22;;;;;;;17.08;8.23;;;;;;;6.53;56.53;96996.84;5088824;28;20114;-82
2023/03/08 09:36:48;;;;;;;16.33;8.75;;;;;;;6.51;56.00;96993.63;5093757;28;20073;-82
2023/03/08 09:39:13;;;;;;;12.02;7.53;;;;;;;6.46;56.47;96993.72;5091400;28;20059;-83
2023/03/08 09:41:47;;;;;;;20.30;11.65;;;;;;;6.49;55.64;96993.13;5106950;28;20122;-85
2023/03/08 09:44:18;;;;;;;13.82;8.60;;;;;;;6.52;56.34;96986.28;5087474;28;20380;-85
2023/03/08 09:47:00;;;;;;;16.88;8.68;;;;;;;6.57;56.14;96996.25;5086974;28;20059;-84
2023/03/08 09:49:29;;;;;;;13.88;7.72;;;;;;;6.65;56.06;96996.31;5089795;28;20043;-84
2023/03/08 09:52:15;;;;;;;16.02;10.23;;;;;;;6.70;56.38;96993.47;5089135;28;20028;-83
2023/03/08 09:54:41;;;;;;;19.33;9.60;;;;;;;6.78;55.79;96997.38;5094402;28;20028;-84
2023/03/08 09:57:15;;;;;;;13.55;7.85;;;;;;;6.84;56.36;96998.88;5089757;28;20372;-81
2023/03/08 09:59:52;;;;;;;10.07;6.55;;;;;;;6.94;55.19;96991.59;5089293;28;20550;-82
2023/03/08 10:02:47;;;;;;;14.00;7.75;;;;;;;7.03;55.50;96988.91;5092390;28;20047;-85
2023/03/08 10:05:18;;;;;;;15.55;8.02;;;;;;;7.11;55.24;96989.00;5089034;28;20059;-83
2023/03/08 10:07:59;;;;;;;12.55;7.63;;;;;;;7.21;55.37;96989.84;5094351;28;20048;-83
2023/03/08 10:10:45;;;;;;;14.35;7.55;;;;;;;7.24;54.02;96981.88;5092112;28;20028;-82
2023/03/08 10:13:17;;;;;;;12.90;7.55;;;;;;;7.21;53.73;96971.59;5078442;28;20417;-85
2023/03/08 10:15:48;;;;;;;12.98;7.70;;;;;;;7.20;54.38;96969.16;5074661;28;20024;-86
2023/03/08 10:18:30;;;;;;;18.77;9.63;;;;;;;7.26;54.14;96967.91;5090359;28;20039;-81
2023/03/08 10:21:00;;;;;;;20.42;10.30;;;;;;;7.30;53.37;96971.63;5086280;28;20028;-80
2023/03/08 10:23:28;;;;;;;17.23;9.18;;;;;;;7.34;54.69;96963.63;5106164;28;20055;-82
2023/03/08 10:25:54;;;;;;;14.70;7.85;;;;;;;7.40;54.31;96963.19;5087757;28;20488;-80
2023/03/08 10:28:22;;;;;;;15.82;8.20;;;;;;;7.45;53.89;96963.06;5085677;28;20157;-81
2023/03/08 10:30:59;;;;;;;15.80;8.35;;;;;;;7.53;54.02;96957.97;5096059;28;20031;-84
2023/03/08 10:33:31;;;;;;;13.60;7.80;;;;;;;7.57;53.47;96958.94;5103956;28;20034;-81
2023/03/08 10:36:08;;;;;;;13.23;7.53;;;;;;;7.57;53.43;96961.66;5087324;28;20039;-80
2023/03/08 10:38:35;;;;;;;13.63;7.60;;;;;;;7.64;53.68;96967.47;5088584;28;20023;-80
2023/03/08 10:41:06;;;;;;;14.48;8.52;;;;;;;7.67;53.67;96963.34;5095731;28;20046;-81
2023/03/08 10:43:39;;;;;;;17.77;8.63;;;;;;;7.74;54.02;96969.94;5102332;28;20083;-81
2023/03/08 10:46:11;;;;;;;15.80;8.23;;;;;;;7.79;54.05;96962.75;5093401;28;20044;-77
2023/03/08 10:48:37;;;;;;;16.98;8.40;;;;;;;7.81;53.39;96955.03;5083033;28;20028;-77
2023/03/08 10:51:05;;;;;;;16.52;7.90;;;;;;;7.83;53.54;96956.31;5090027;28;20044;-80
2023/03/08 10:53:31;;;;;;;15.43;8.98;;;;;;;7.85;53.03;96954.09;5089784;28;20027;-81
2023/03/08 10:55:59;;;;;;;32.13;12.43;;;;;;;7.82;52.83;96948.47;5094482;28;20482;-79
2023/03/08 10:58:37;;;;;;;25.88;11.75;;;;;;;7.77;53.03;96954.06;5098671;28;20027;-79
2023/03/08 11:01:05;;;;;;;19.77;10.38;;;;;;;7.78;53.55;96947.47;5083705;28;20031;-78
2023/03/08 11:03:31;;;;;;;18.02;9.35;;;;;;;7.82;53.08;96953.94;5086880;28;20052;-76
2023/03/08 11:05:58;;;;;;;14.93;8.63;;;;;;;7.82;53.09;96948.47;5084911;28;20519;-77
2023/03/08 11:08:32;;;;;;;14.73;8.27;;;;;;;7.80;53.06;96942.50;5082727;28;20028;-77
2023/03/08 11:11:03;;;;;;;13.70;8.00;;;;;;;7.80;53.26;96934.31;5071678;28;20118;-79
2023/03/08 11:13:31;;;;;;;13.77;8.38;;;;;;;7.79;53.20;96925.31;5091001;28;20032;-77
2023/03/08 11:16:18;;;;;;;14.38;7.57;;;;;;;7.79;53.32;96917.13;5069001;28;20024;-77
2023/03/08 11:19:23;;;;;;;12.55;8.15;;;;;;;7.80;52.56;96926.13;5087459;28;20043;-76
2023/03/08 11:22:06;;;;;;;13.95;7.30;;;;;;;7.87;52.35;96915.56;5083718;28;20475;-77
2023/03/08 11:24:55;;;;;;;13.52;8.18;;;;;;;7.96;52.96;96916.38;5103824;28;20040;-76
2023/03/08 11:27:29;;;;;;;13.52;7.53;;;;;;;8.09;52.59;96916.59;5080405;28;20024;-79
2023/03/08 11:30:25;;;;;;;13.80;7.85;;;;;;;8.18;51.93;96918.19;5082022;28;20169;-79
2023/03/08 11:33:02;;;;;;;10.40;6.45;;;;;;;8.20;51.32;96910.50;5086420;28;20044;-79
2023/03/08 11:36:11;;;;;;;12.63;7.80;;;;;;;8.27;51.74;96911.94;5098260;28;20088;-80